EDSBEDDR

Guest
Details From EDSB - Karlsruhe Baden Baden
To EDDR - Saarbrucken
Flight Number -
Tags Generated
Created
Modified
Stats Distance 46 nm / 86 km
Max Altitude 0 ft / 0 m
Waypoints 2
Social Downloads 0
Likes 0
Share VATSIM

Download

Looking for another format? Having issues loading an existing format? Contact us
Advertisement - Login to hide

Notes

Generated

Route

EDSB EDDR

ID Type Via Altitude Latitude Longitude Leg Dist Tot Dist Heading (true) Name
O EDSB APT - 0 ft / 0 m 48.76783˚ 8.06994˚ - 0 nm - -
O EDDR APT - 0 ft / 0 m 49.21599˚ 7.11154˚ 46 nm 46 nm 306° / 305° Saarbrucken

Altitude Profile

Advertisement - Login to hide

EDSB

Details ICAO EDSB (FKB)
Name Karlsruhe Baden Baden
Region Germany - Civil
Timezone Europe/Berlin (UTC+1.0)
Stats Elevation 408 ft / 124 m (AMSL)
Location 48.779257° 8.080642°
Runways 1
Magnetic Variation 2.224° E

METAR

EDSB 180120Z AUTO 21011KT 9999 // SCT041/// OVC079/// 02/M00 Q1024

Decode

TAF

TAF TAF EDSB 180020Z 1800/1818 CNL

Decode

Departure Runways

ID Width Length Bearing (true) Bearing (mag) Surface Threshold Offset Overrun Length
03 148 ft / 45 m 9,799 ft / 2,987 m 31.69° 29.47° Asphalt 830 ft / 253 m 115 ft / 35 m
21 148 ft / 45 m 9,799 ft / 2,987 m 211.70° 209.48° Asphalt 830 ft / 253 m 115 ft / 35 m

EDDR

Details ICAO EDDR (SCN)
Name Saarbrucken
Region Germany - Civil
Timezone Europe/Berlin (UTC+1.0)
Stats Elevation 1,057 ft / 322 m (AMSL)
Location 49.215343° 7.112610°
Runways 2
Magnetic Variation 1.955° E

METAR

EDDR 180120Z AUTO 21010KT 3000 // SCT010/// M00/M01 Q1022

Decode

TAF

TAF EDDR 172300Z 1800/1824 22010KT 9999 SCT008 BKN030 BECMG 1800/1802 4000 -SN BKN008 TEMPO 1801/1809 2000 SN OVC004 PROB30 TEMPO 1802/1807 0500 +SN VV001 BECMG 1809/1812 33004KT 6000 BKN010 TEMPO 1812/1818 3000 -RASN BKN006 TEMPO 1818/1824 2500 BR BKN005

Decode

Destination Runways

ID Width Length Bearing (true) Bearing (mag) Surface Threshold Offset Overrun Length
09 148 ft / 45 m 6,450 ft / 1,966 m 87.38° 85.43° Asphalt 85 ft / 26 m 0 ft / 0 m
09L 164 ft / 50 m 1,784 ft / 544 m 87.10° 85.15° Grass 0 ft / 0 m 0 ft / 0 m
27 148 ft / 45 m 6,450 ft / 1,966 m 267.40° 265.45° Asphalt 0 ft / 0 m 0 ft / 0 m
27R 164 ft / 50 m 1,784 ft / 544 m 267.10° 265.15° Grass 0 ft / 0 m 0 ft / 0 m

Approach Navaids

Runway Type Ident Frequency Range Bearing (true) Bearing (mag) Slope Elevation
27 Localiser DSB 108.70 MHz 25 nm / 46 km 267.37° 265.42° - 1,021 ft / 311 m (AMSL)
27 Glidescope DSB 108.70 MHz 10 nm / 19 km 267.39° 265.44° 3.00° 1,056 ft / 322 m (AMSL)